sensor_id;sensor_type;location;lat;lon;timestamp;P1;durP1;ratioP1;P2;durP2;ratioP2
20619;SDS011;10469;42.720;23.252;2023-04-06T00:02:12;12.40;;;8.02;;
20619;SDS011;10469;42.720;23.252;2023-04-06T00:04:37;12.65;;;8.43;;
20619;SDS011;10469;42.720;23.252;2023-04-06T00:07:03;11.52;;;7.60;;
20619;SDS011;10469;42.720;23.252;2023-04-06T00:09:31;12.50;;;7.97;;
20619;SDS011;10469;42.720;23.252;2023-04-06T00:11:56;13.70;;;8.52;;
20619;SDS011;10469;42.720;23.252;2023-04-06T00:14:25;13.00;;;7.82;;
20619;SDS011;10469;42.720;23.252;2023-04-06T00:16:51;12.18;;;7.90;;
20619;SDS011;10469;42.720;23.252;2023-04-06T00:19:17;14.20;;;8.60;;
20619;SDS011;10469;42.720;23.252;2023-04-06T00:21:43;12.30;;;7.95;;
20619;SDS011;10469;42.720;23.252;2023-04-06T00:24:08;13.27;;;8.25;;
20619;SDS011;10469;42.720;23.252;2023-04-06T00:26:35;14.93;;;9.15;;
20619;SDS011;10469;42.720;23.252;2023-04-06T00:29:00;12.50;;;8.35;;
20619;SDS011;10469;42.720;23.252;2023-04-06T00:31:26;12.23;;;7.72;;
20619;SDS011;10469;42.720;23.252;2023-04-06T00:33:52;11.20;;;7.95;;
20619;SDS011;10469;42.720;23.252;2023-04-06T00:36:18;12.20;;;8.15;;
20619;SDS011;10469;42.720;23.252;2023-04-06T00:38:44;11.48;;;8.00;;
20619;SDS011;10469;42.720;23.252;2023-04-06T00:41:11;13.93;;;8.73;;
20619;SDS011;10469;42.720;23.252;2023-04-06T00:43:37;12.68;;;8.05;;
20619;SDS011;10469;42.720;23.252;2023-04-06T00:46:02;10.30;;;8.02;;
20619;SDS011;10469;42.720;23.252;2023-04-06T00:48:28;12.55;;;8.02;;
20619;SDS011;10469;42.720;23.252;2023-04-06T00:50:56;12.07;;;7.55;;
20619;SDS011;10469;42.720;23.252;2023-04-06T00:53:22;10.48;;;7.45;;
20619;SDS011;10469;42.720;23.252;2023-04-06T00:55:48;17.73;;;8.57;;
20619;SDS011;10469;42.720;23.252;2023-04-06T00:58:14;12.23;;;7.43;;
20619;SDS011;10469;42.720;23.252;2023-04-06T01:00:40;11.25;;;7.55;;
20619;SDS011;10469;42.720;23.252;2023-04-06T01:03:06;11.80;;;8.43;;
20619;SDS011;10469;42.720;23.252;2023-04-06T01:05:34;11.40;;;7.70;;
20619;SDS011;10469;42.720;23.252;2023-04-06T01:08:05;10.57;;;6.88;;
20619;SDS011;10469;42.720;23.252;2023-04-06T01:10:30;12.13;;;7.20;;
20619;SDS011;10469;42.720;23.252;2023-04-06T01:12:56;12.95;;;7.97;;
20619;SDS011;10469;42.720;23.252;2023-04-06T01:15:22;12.80;;;8.75;;
20619;SDS011;10469;42.720;23.252;2023-04-06T01:17:49;10.90;;;7.50;;
20619;SDS011;10469;42.720;23.252;2023-04-06T01:20:15;12.35;;;8.43;;
20619;SDS011;10469;42.720;23.252;2023-04-06T01:22:41;11.75;;;7.97;;
20619;SDS011;10469;42.720;23.252;2023-04-06T01:25:07;17.77;;;8.45;;
20619;SDS011;10469;42.720;23.252;2023-04-06T01:27:34;13.15;;;8.68;;
20619;SDS011;10469;42.720;23.252;2023-04-06T01:29:59;13.27;;;8.98;;
20619;SDS011;10469;42.720;23.252;2023-04-06T01:32:25;13.38;;;8.65;;
20619;SDS011;10469;42.720;23.252;2023-04-06T01:34:51;19.42;;;9.52;;
20619;SDS011;10469;42.720;23.252;2023-04-06T01:37:17;18.38;;;9.88;;
20619;SDS011;10469;42.720;23.252;2023-04-06T01:39:43;14.27;;;8.88;;
20619;SDS011;10469;42.720;23.252;2023-04-06T01:42:09;11.63;;;8.00;;
20619;SDS011;10469;42.720;23.252;2023-04-06T01:44:34;13.55;;;9.30;;
20619;SDS011;10469;42.720;23.252;2023-04-06T01:47:01;13.90;;;8.15;;
20619;SDS011;10469;42.720;23.252;2023-04-06T01:49:26;14.05;;;9.25;;
20619;SDS011;10469;42.720;23.252;2023-04-06T01:51:52;11.50;;;8.63;;
20619;SDS011;10469;42.720;23.252;2023-04-06T01:54:19;18.00;;;10.30;;
20619;SDS011;10469;42.720;23.252;2023-04-06T01:56:45;14.40;;;9.15;;
20619;SDS011;10469;42.720;23.252;2023-04-06T01:59:11;15.18;;;9.40;;
20619;SDS011;10469;42.720;23.252;2023-04-06T02:01:36;13.43;;;9.10;;
20619;SDS011;10469;42.720;23.252;2023-04-06T02:04:02;14.15;;;9.60;;
20619;SDS011;10469;42.720;23.252;2023-04-06T02:06:28;13.20;;;9.77;;
20619;SDS011;10469;42.720;23.252;2023-04-06T02:08:54;17.35;;;8.88;;
20619;SDS011;10469;42.720;23.252;2023-04-06T02:11:20;15.57;;;9.65;;
20619;SDS011;10469;42.720;23.252;2023-04-06T02:13:45;13.07;;;8.55;;
20619;SDS011;10469;42.720;23.252;2023-04-06T02:16:11;13.45;;;8.95;;
20619;SDS011;10469;42.720;23.252;2023-04-06T02:18:37;12.90;;;8.75;;
20619;SDS011;10469;42.720;23.252;2023-04-06T02:21:03;14.82;;;9.43;;
20619;SDS011;10469;42.720;23.252;2023-04-06T02:23:29;14.55;;;10.20;;
20619;SDS011;10469;42.720;23.252;2023-04-06T02:25:55;14.45;;;9.68;;
20619;SDS011;10469;42.720;23.252;2023-04-06T02:28:21;15.50;;;10.15;;
20619;SDS011;10469;42.720;23.252;2023-04-06T02:30:50;15.20;;;9.85;;
20619;SDS011;10469;42.720;23.252;2023-04-06T02:33:16;16.10;;;9.45;;
20619;SDS011;10469;42.720;23.252;2023-04-06T02:35:43;14.57;;;9.77;;
20619;SDS011;10469;42.720;23.252;2023-04-06T02:38:11;13.00;;;8.80;;
20619;SDS011;10469;42.720;23.252;2023-04-06T02:40:36;13.13;;;8.65;;
20619;SDS011;10469;42.720;23.252;2023-04-06T02:43:02;14.85;;;9.32;;
20619;SDS011;10469;42.720;23.252;2023-04-06T02:45:28;14.77;;;9.40;;
20619;SDS011;10469;42.720;23.252;2023-04-06T02:47:54;15.90;;;9.50;;
20619;SDS011;10469;42.720;23.252;2023-04-06T02:50:20;12.63;;;8.98;;
20619;SDS011;10469;42.720;23.252;2023-04-06T02:52:46;16.05;;;8.70;;
20619;SDS011;10469;42.720;23.252;2023-04-06T02:55:11;10.93;;;7.75;;
20619;SDS011;10469;42.720;23.252;2023-04-06T02:57:38;11.73;;;7.45;;
20619;SDS011;10469;42.720;23.252;2023-04-06T03:00:04;10.15;;;6.75;;
20619;SDS011;10469;42.720;23.252;2023-04-06T03:02:30;12.35;;;6.55;;
20619;SDS011;10469;42.720;23.252;2023-04-06T03:04:56;10.02;;;6.65;;
20619;SDS011;10469;42.720;23.252;2023-04-06T03:07:22;11.80;;;7.15;;
20619;SDS011;10469;42.720;23.252;2023-04-06T03:09:48;12.93;;;7.82;;
20619;SDS011;10469;42.720;23.252;2023-04-06T03:12:14;12.00;;;7.10;;
20619;SDS011;10469;42.720;23.252;2023-04-06T03:14:39;12.45;;;7.70;;
20619;SDS011;10469;42.720;23.252;2023-04-06T03:17:05;15.38;;;9.43;;
20619;SDS011;10469;42.720;23.252;2023-04-06T03:19:31;14.52;;;9.05;;
20619;SDS011;10469;42.720;23.252;2023-04-06T03:21:56;12.95;;;8.82;;
20619;SDS011;10469;42.720;23.252;2023-04-06T03:24:22;13.15;;;8.98;;
20619;SDS011;10469;42.720;23.252;2023-04-06T03:26:48;15.05;;;9.95;;
20619;SDS011;10469;42.720;23.252;2023-04-06T03:29:13;17.02;;;9.07;;
20619;SDS011;10469;42.720;23.252;2023-04-06T03:31:39;15.93;;;10.68;;
20619;SDS011;10469;42.720;23.252;2023-04-06T03:34:05;18.05;;;10.50;;
20619;SDS011;10469;42.720;23.252;2023-04-06T03:36:31;16.67;;;11.20;;
20619;SDS011;10469;42.720;23.252;2023-04-06T03:38:57;22.55;;;10.80;;
20619;SDS011;10469;42.720;23.252;2023-04-06T03:41:26;21.65;;;10.50;;
20619;SDS011;10469;42.720;23.252;2023-04-06T03:43:52;19.55;;;10.48;;
20619;SDS011;10469;42.720;23.252;2023-04-06T03:46:18;16.58;;;10.45;;
20619;SDS011;10469;42.720;23.252;2023-04-06T03:48:44;18.45;;;11.85;;
20619;SDS011;10469;42.720;23.252;2023-04-06T03:51:13;20.35;;;10.65;;
20619;SDS011;10469;42.720;23.252;2023-04-06T03:53:39;18.45;;;10.60;;
20619;SDS011;10469;42.720;23.252;2023-04-06T03:56:06;17.20;;;10.57;;
20619;SDS011;10469;42.720;23.252;2023-04-06T03:58:32;21.52;;;11.57;;
20619;SDS011;10469;42.720;23.252;2023-04-06T04:00:58;20.73;;;11.10;;
20619;SDS011;10469;42.720;23.252;2023-04-06T04:03:24;21.70;;;11.23;;
20619;SDS011;10469;42.720;23.252;2023-04-06T04:05:52;19.15;;;11.00;;
20619;SDS011;10469;42.720;23.252;2023-04-06T04:08:17;17.77;;;12.57;;
20619;SDS011;10469;42.720;23.252;2023-04-06T04:10:46;20.40;;;11.82;;
20619;SDS011;10469;42.720;23.252;2023-04-06T04:13:30;26.98;;;12.63;;
20619;SDS011;10469;42.720;23.252;2023-04-06T04:15:56;20.95;;;13.25;;
20619;SDS011;10469;42.720;23.252;2023-04-06T04:18:21;18.60;;;11.57;;
20619;SDS011;10469;42.720;23.252;2023-04-06T04:20:52;23.50;;;13.05;;
20619;SDS011;10469;42.720;23.252;2023-04-06T04:23:18;25.10;;;12.32;;
20619;SDS011;10469;42.720;23.252;2023-04-06T04:25:43;24.25;;;12.25;;
20619;SDS011;10469;42.720;23.252;2023-04-06T04:28:10;19.15;;;11.45;;
20619;SDS011;10469;42.720;23.252;2023-04-06T04:30:35;17.10;;;9.82;;
20619;SDS011;10469;42.720;23.252;2023-04-06T04:33:01;16.98;;;9.63;;
20619;SDS011;10469;42.720;23.252;2023-04-06T04:35:27;15.32;;;9.82;;
20619;SDS011;10469;42.720;23.252;2023-04-06T04:37:53;17.88;;;10.45;;
20619;SDS011;10469;42.720;23.252;2023-04-06T04:40:18;16.67;;;10.10;;
20619;SDS011;10469;42.720;23.252;2023-04-06T04:42:44;16.52;;;10.30;;
20619;SDS011;10469;42.720;23.252;2023-04-06T04:45:10;17.02;;;10.48;;
20619;SDS011;10469;42.720;23.252;2023-04-06T04:47:35;16.27;;;10.50;;
20619;SDS011;10469;42.720;23.252;2023-04-06T04:50:03;19.70;;;10.55;;
20619;SDS011;10469;42.720;23.252;2023-04-06T04:52:32;17.27;;;9.55;;
20619;SDS011;10469;42.720;23.252;2023-04-06T04:54:58;20.20;;;9.35;;
20619;SDS011;10469;42.720;23.252;2023-04-06T04:57:24;16.73;;;10.02;;
20619;SDS011;10469;42.720;23.252;2023-04-06T04:59:50;14.98;;;9.25;;
20619;SDS011;10469;42.720;23.252;2023-04-06T05:02:19;16.70;;;9.75;;
20619;SDS011;10469;42.720;23.252;2023-04-06T05:04:45;13.10;;;8.63;;
20619;SDS011;10469;42.720;23.252;2023-04-06T05:07:11;15.15;;;9.82;;
20619;SDS011;10469;42.720;23.252;2023-04-06T05:09:37;18.38;;;10.27;;
20619;SDS011;10469;42.720;23.252;2023-04-06T05:12:03;14.45;;;7.65;;
20619;SDS011;10469;42.720;23.252;2023-04-06T05:14:29;16.88;;;8.05;;
20619;SDS011;10469;42.720;23.252;2023-04-06T05:16:56;13.25;;;8.07;;
20619;SDS011;10469;42.720;23.252;2023-04-06T05:19:21;16.67;;;8.25;;
20619;SDS011;10469;42.720;23.252;2023-04-06T05:21:48;17.55;;;9.23;;
20619;SDS011;10469;42.720;23.252;2023-04-06T05:24:14;19.35;;;8.68;;
20619;SDS011;10469;42.720;23.252;2023-04-06T05:26:40;21.27;;;10.00;;
20619;SDS011;10469;42.720;23.252;2023-04-06T05:29:06;14.38;;;9.18;;
20619;SDS011;10469;42.720;23.252;2023-04-06T05:31:33;19.63;;;9.10;;
20619;SDS011;10469;42.720;23.252;2023-04-06T05:33:58;14.88;;;8.85;;
20619;SDS011;10469;42.720;23.252;2023-04-06T05:36:25;14.23;;;8.43;;
20619;SDS011;10469;42.720;23.252;2023-04-06T05:38:51;17.88;;;10.10;;
20619;SDS011;10469;42.720;23.252;2023-04-06T05:41:18;20.73;;;9.88;;
20619;SDS011;10469;42.720;23.252;2023-04-06T05:43:44;18.00;;;9.32;;
20619;SDS011;10469;42.720;23.252;2023-04-06T05:46:09;16.33;;;9.80;;
20619;SDS011;10469;42.720;23.252;2023-04-06T05:48:37;20.15;;;10.57;;
20619;SDS011;10469;42.720;23.252;2023-04-06T05:51:02;19.23;;;10.80;;
20619;SDS011;10469;42.720;23.252;2023-04-06T05:53:31;15.40;;;10.43;;
20619;SDS011;10469;42.720;23.252;2023-04-06T05:55:57;22.90;;;9.73;;
20619;SDS011;10469;42.720;23.252;2023-04-06T05:58:25;24.13;;;11.60;;
20619;SDS011;10469;42.720;23.252;2023-04-06T06:00:56;17.92;;;11.13;;
20619;SDS011;10469;42.720;23.252;2023-04-06T06:03:23;21.25;;;9.98;;
20619;SDS011;10469;42.720;23.252;2023-04-06T06:05:50;15.93;;;10.65;;
20619;SDS011;10469;42.720;23.252;2023-04-06T06:08:17;20.00;;;12.55;;
20619;SDS011;10469;42.720;23.252;2023-04-06T06:10:42;19.63;;;9.07;;
20619;SDS011;10469;42.720;23.252;2023-04-06T06:13:09;17.00;;;9.95;;
20619;SDS011;10469;42.720;23.252;2023-04-06T06:15:35;12.93;;;8.82;;
20619;SDS011;10469;42.720;23.252;2023-04-06T06:18:01;16.38;;;9.48;;
20619;SDS011;10469;42.720;23.252;2023-04-06T06:20:26;20.70;;;10.57;;
20619;SDS011;10469;42.720;23.252;2023-04-06T06:22:54;20.88;;;9.98;;
20619;SDS011;10469;42.720;23.252;2023-04-06T06:25:21;16.23;;;10.15;;
20619;SDS011;10469;42.720;23.252;2023-04-06T06:27:47;15.60;;;9.32;;
20619;SDS011;10469;42.720;23.252;2023-04-06T06:30:12;15.77;;;9.20;;
20619;SDS011;10469;42.720;23.252;2023-04-06T06:32:38;15.93;;;9.55;;
20619;SDS011;10469;42.720;23.252;2023-04-06T06:35:04;14.52;;;9.23;;
20619;SDS011;10469;42.720;23.252;2023-04-06T06:37:30;18.20;;;9.38;;
20619;SDS011;10469;42.720;23.252;2023-04-06T06:39:56;14.82;;;9.50;;
20619;SDS011;10469;42.720;23.252;2023-04-06T06:42:21;22.23;;;9.40;;
20619;SDS011;10469;42.720;23.252;2023-04-06T06:44:48;17.70;;;8.82;;
20619;SDS011;10469;42.720;23.252;2023-04-06T06:47:15;14.82;;;9.60;;
20619;SDS011;10469;42.720;23.252;2023-04-06T06:49:40;15.05;;;9.15;;
20619;SDS011;10469;42.720;23.252;2023-04-06T06:52:07;16.02;;;9.82;;
20619;SDS011;10469;42.720;23.252;2023-04-06T06:54:35;12.93;;;9.35;;
20619;SDS011;10469;42.720;23.252;2023-04-06T06:57:00;18.58;;;9.23;;
20619;SDS011;10469;42.720;23.252;2023-04-06T06:59:46;16.25;;;10.20;;
20619;SDS011;10469;42.720;23.252;2023-04-06T07:02:15;16.40;;;9.32;;
20619;SDS011;10469;42.720;23.252;2023-04-06T08:22:12;16.70;;;7.47;;
20619;SDS011;10469;42.720;23.252;2023-04-06T08:24:38;13.55;;;8.82;;
20619;SDS011;10469;42.720;23.252;2023-04-06T08:27:03;11.43;;;7.25;;
20619;SDS011;10469;42.720;23.252;2023-04-06T08:29:29;11.45;;;7.15;;
20619;SDS011;10469;42.720;23.252;2023-04-06T08:31:55;9.20;;;6.97;;
20619;SDS011;10469;42.720;23.252;2023-04-06T08:34:21;14.50;;;7.45;;
20619;SDS011;10469;42.720;23.252;2023-04-06T08:36:50;10.40;;;7.22;;
20619;SDS011;10469;42.720;23.252;2023-04-06T08:39:17;14.27;;;6.60;;
20619;SDS011;10469;42.720;23.252;2023-04-06T08:41:50;13.32;;;8.65;;
20619;SDS011;10469;42.720;23.252;2023-04-06T08:44:17;12.68;;;7.78;;
20619;SDS011;10469;42.720;23.252;2023-04-06T08:46:47;13.75;;;8.30;;
20619;SDS011;10469;42.720;23.252;2023-04-06T08:49:13;10.70;;;7.20;;
20619;SDS011;10469;42.720;23.252;2023-04-06T08:51:41;12.02;;;8.15;;
20619;SDS011;10469;42.720;23.252;2023-04-06T08:54:07;11.48;;;8.05;;
20619;SDS011;10469;42.720;23.252;2023-04-06T08:56:33;11.80;;;7.32;;
20619;SDS011;10469;42.720;23.252;2023-04-06T08:59:03;11.82;;;7.50;;
20619;SDS011;10469;42.720;23.252;2023-04-06T09:01:31;13.10;;;8.02;;
20619;SDS011;10469;42.720;23.252;2023-04-06T09:04:02;12.38;;;8.15;;
20619;SDS011;10469;42.720;23.252;2023-04-06T09:06:32;13.15;;;7.70;;
20619;SDS011;10469;42.720;23.252;2023-04-06T09:08:58;11.82;;;7.88;;
20619;SDS011;10469;42.720;23.252;2023-04-06T09:11:24;11.40;;;7.72;;
20619;SDS011;10469;42.720;23.252;2023-04-06T09:13:50;12.30;;;8.75;;
20619;SDS011;10469;42.720;23.252;2023-04-06T09:16:18;12.35;;;7.85;;
20619;SDS011;10469;42.720;23.252;2023-04-06T09:18:44;13.18;;;8.73;;
20619;SDS011;10469;42.720;23.252;2023-04-06T09:21:10;14.45;;;7.88;;
20619;SDS011;10469;42.720;23.252;2023-04-06T09:23:37;10.95;;;7.60;;
20619;SDS011;10469;42.720;23.252;2023-04-06T09:26:11;10.57;;;7.80;;
20619;SDS011;10469;42.720;23.252;2023-04-06T09:28:48;9.75;;;6.60;;
20619;SDS011;10469;42.720;23.252;2023-04-06T09:31:16;11.60;;;7.88;;
20619;SDS011;10469;42.720;23.252;2023-04-06T09:33:47;12.63;;;7.45;;
20619;SDS011;10469;42.720;23.252;2023-04-06T09:36:13;11.40;;;6.47;;
20619;SDS011;10469;42.720;23.252;2023-04-06T09:38:55;12.27;;;7.90;;
20619;SDS011;10469;42.720;23.252;2023-04-06T09:41:29;11.90;;;7.13;;
20619;SDS011;10469;42.720;23.252;2023-04-06T09:44:08;12.23;;;7.10;;
20619;SDS011;10469;42.720;23.252;2023-04-06T09:46:40;14.52;;;7.50;;
20619;SDS011;10469;42.720;23.252;2023-04-06T09:49:08;10.82;;;6.82;;
20619;SDS011;10469;42.720;23.252;2023-04-06T09:51:46;11.32;;;7.75;;
20619;SDS011;10469;42.720;23.252;2023-04-06T09:54:38;12.75;;;7.38;;
20619;SDS011;10469;42.720;23.252;2023-04-06T09:57:25;9.25;;;7.05;;
20619;SDS011;10469;42.720;23.252;2023-04-06T09:59:58;12.30;;;7.35;;
20619;SDS011;10469;42.720;23.252;2023-04-06T10:02:48;9.90;;;7.82;;
20619;SDS011;10469;42.720;23.252;2023-04-06T11:04:55;8.13;;;6.85;;
20619;SDS011;10469;42.720;23.252;2023-04-06T11:07:25;12.00;;;6.07;;
20619;SDS011;10469;42.720;23.252;2023-04-06T11:09:52;8.02;;;6.22;;
20619;SDS011;10469;42.720;23.252;2023-04-06T11:12:22;8.32;;;6.10;;
20619;SDS011;10469;42.720;23.252;2023-04-06T11:14:56;9.48;;;6.57;;
20619;SDS011;10469;42.720;23.252;2023-04-06T11:17:34;8.18;;;5.80;;
20619;SDS011;10469;42.720;23.252;2023-04-06T11:20:02;15.00;;;5.75;;
20619;SDS011;10469;42.720;23.252;2023-04-06T11:22:31;16.23;;;6.30;;
20619;SDS011;10469;42.720;23.252;2023-04-06T11:25:06;11.27;;;6.65;;
20619;SDS011;10469;42.720;23.252;2023-04-06T11:27:36;15.98;;;7.03;;
20619;SDS011;10469;42.720;23.252;2023-04-06T11:30:04;9.23;;;6.35;;
20619;SDS011;10469;42.720;23.252;2023-04-06T11:32:38;11.30;;;6.13;;
20619;SDS011;10469;42.720;23.252;2023-04-06T11:35:06;10.05;;;6.50;;
20619;SDS011;10469;42.720;23.252;2023-04-06T11:37:32;9.88;;;6.72;;
20619;SDS011;10469;42.720;23.252;2023-04-06T11:39:58;8.63;;;6.20;;
20619;SDS011;10469;42.720;23.252;2023-04-06T11:42:29;11.40;;;6.32;;
20619;SDS011;10469;42.720;23.252;2023-04-06T11:44:55;9.75;;;6.75;;
20619;SDS011;10469;42.720;23.252;2023-04-06T11:47:29;11.27;;;7.20;;
20619;SDS011;10469;42.720;23.252;2023-04-06T11:52:25;12.63;;;7.28;;
20619;SDS011;10469;42.720;23.252;2023-04-06T11:54:52;9.40;;;6.63;;
20619;SDS011;10469;42.720;23.252;2023-04-06T11:57:20;9.23;;;6.38;;
20619;SDS011;10469;42.720;23.252;2023-04-06T11:59:50;17.35;;;6.30;;
20619;SDS011;10469;42.720;23.252;2023-04-06T12:02:16;14.25;;;7.00;;
20619;SDS011;10469;42.720;23.252;2023-04-06T12:04:43;10.90;;;6.45;;
20619;SDS011;10469;42.720;23.252;2023-04-06T12:07:10;12.40;;;6.47;;
20619;SDS011;10469;42.720;23.252;2023-04-06T12:09:36;12.98;;;6.63;;
20619;SDS011;10469;42.720;23.252;2023-04-06T12:12:02;9.85;;;6.60;;
20619;SDS011;10469;42.720;23.252;2023-04-06T12:14:29;9.80;;;7.03;;
20619;SDS011;10469;42.720;23.252;2023-04-06T12:16:56;9.90;;;5.78;;
20619;SDS011;10469;42.720;23.252;2023-04-06T12:19:23;9.57;;;5.90;;
20619;SDS011;10469;42.720;23.252;2023-04-06T12:21:51;7.35;;;5.13;;
20619;SDS011;10469;42.720;23.252;2023-04-06T12:24:18;7.35;;;5.57;;
20619;SDS011;10469;42.720;23.252;2023-04-06T12:26:45;6.25;;;5.47;;
20619;SDS011;10469;42.720;23.252;2023-04-06T12:29:11;8.98;;;6.60;;
20619;SDS011;10469;42.720;23.252;2023-04-06T12:31:38;9.38;;;6.38;;
20619;SDS011;10469;42.720;23.252;2023-04-06T12:34:06;7.90;;;5.88;;
20619;SDS011;10469;42.720;23.252;2023-04-06T12:36:32;11.45;;;6.50;;
20619;SDS011;10469;42.720;23.252;2023-04-06T12:38:58;10.95;;;7.20;;
20619;SDS011;10469;42.720;23.252;2023-04-06T12:41:25;11.35;;;7.50;;
20619;SDS011;10469;42.720;23.252;2023-04-06T12:43:51;11.18;;;7.05;;
20619;SDS011;10469;42.720;23.252;2023-04-06T12:46:17;12.65;;;7.40;;
20619;SDS011;10469;42.720;23.252;2023-04-06T12:48:42;9.02;;;7.45;;
20619;SDS011;10469;42.720;23.252;2023-04-06T12:51:08;10.52;;;6.72;;
20619;SDS011;10469;42.720;23.252;2023-04-06T12:53:34;13.25;;;6.88;;
20619;SDS011;10469;42.720;23.252;2023-04-06T12:56:01;12.07;;;6.65;;
20619;SDS011;10469;42.720;23.252;2023-04-06T12:58:28;8.88;;;5.82;;
20619;SDS011;10469;42.720;23.252;2023-04-06T13:00:54;10.73;;;6.53;;
20619;SDS011;10469;42.720;23.252;2023-04-06T13:03:22;12.32;;;5.97;;
20619;SDS011;10469;42.720;23.252;2023-04-06T13:05:51;9.38;;;6.70;;
20619;SDS011;10469;42.720;23.252;2023-04-06T13:08:18;13.32;;;9.27;;
20619;SDS011;10469;42.720;23.252;2023-04-06T13:10:48;9.27;;;6.68;;
20619;SDS011;10469;42.720;23.252;2023-04-06T13:13:15;8.95;;;7.13;;
20619;SDS011;10469;42.720;23.252;2023-04-06T13:15:43;8.57;;;6.05;;
20619;SDS011;10469;42.720;23.252;2023-04-06T13:18:10;11.00;;;6.65;;
20619;SDS011;10469;42.720;23.252;2023-04-06T13:20:36;7.93;;;5.72;;
20619;SDS011;10469;42.720;23.252;2023-04-06T13:23:02;7.53;;;5.32;;
20619;SDS011;10469;42.720;23.252;2023-04-06T13:25:28;9.45;;;5.43;;
20619;SDS011;10469;42.720;23.252;2023-04-06T13:27:55;7.78;;;4.82;;
20619;SDS011;10469;42.720;23.252;2023-04-06T13:30:20;8.05;;;5.95;;
20619;SDS011;10469;42.720;23.252;2023-04-06T13:32:48;11.43;;;5.63;;
20619;SDS011;10469;42.720;23.252;2023-04-06T13:35:14;10.85;;;5.63;;
20619;SDS011;10469;42.720;23.252;2023-04-06T13:37:40;8.00;;;5.32;;
20619;SDS011;10469;42.720;23.252;2023-04-06T13:40:07;10.70;;;5.88;;
20619;SDS011;10469;42.720;23.252;2023-04-06T13:42:34;11.18;;;6.15;;
20619;SDS011;10469;42.720;23.252;2023-04-06T13:45:05;14.70;;;6.28;;
20619;SDS011;10469;42.720;23.252;2023-04-06T13:47:32;8.73;;;6.07;;
20619;SDS011;10469;42.720;23.252;2023-04-06T13:49:58;8.63;;;6.60;;
20619;SDS011;10469;42.720;23.252;2023-04-06T13:52:24;9.50;;;6.10;;
20619;SDS011;10469;42.720;23.252;2023-04-06T13:54:49;10.35;;;6.22;;
20619;SDS011;10469;42.720;23.252;2023-04-06T13:57:15;9.50;;;5.97;;
20619;SDS011;10469;42.720;23.252;2023-04-06T13:59:43;7.05;;;5.72;;
20619;SDS011;10469;42.720;23.252;2023-04-06T14:02:09;11.50;;;5.65;;
20619;SDS011;10469;42.720;23.252;2023-04-06T14:04:36;7.50;;;5.72;;
20619;SDS011;10469;42.720;23.252;2023-04-06T14:07:02;8.85;;;6.35;;
20619;SDS011;10469;42.720;23.252;2023-04-06T14:09:29;9.77;;;6.60;;
20619;SDS011;10469;42.720;23.252;2023-04-06T14:11:55;7.13;;;5.53;;
20619;SDS011;10469;42.720;23.252;2023-04-06T14:14:23;10.38;;;7.80;;
20619;SDS011;10469;42.720;23.252;2023-04-06T14:16:49;10.13;;;6.38;;
20619;SDS011;10469;42.720;23.252;2023-04-06T14:19:16;11.43;;;6.18;;
20619;SDS011;10469;42.720;23.252;2023-04-06T14:21:45;6.93;;;5.82;;
20619;SDS011;10469;42.720;23.252;2023-04-06T14:24:12;11.32;;;5.70;;
20619;SDS011;10469;42.720;23.252;2023-04-06T14:26:39;11.77;;;6.25;;
20619;SDS011;10469;42.720;23.252;2023-04-06T14:29:09;13.20;;;7.10;;
20619;SDS011;10469;42.720;23.252;2023-04-06T14:31:35;7.72;;;6.25;;
20619;SDS011;10469;42.720;23.252;2023-04-06T14:34:01;10.07;;;6.40;;
20619;SDS011;10469;42.720;23.252;2023-04-06T14:36:28;9.13;;;6.03;;
20619;SDS011;10469;42.720;23.252;2023-04-06T14:39:01;27.90;;;7.22;;
20619;SDS011;10469;42.720;23.252;2023-04-06T14:41:29;9.13;;;6.07;;
20619;SDS011;10469;42.720;23.252;2023-04-06T14:43:56;11.80;;;7.28;;
20619;SDS011;10469;42.720;23.252;2023-04-06T14:46:22;8.68;;;6.95;;
20619;SDS011;10469;42.720;23.252;2023-04-06T14:48:47;10.68;;;7.30;;
20619;SDS011;10469;42.720;23.252;2023-04-06T14:51:13;12.68;;;7.43;;
20619;SDS011;10469;42.720;23.252;2023-04-06T14:53:39;11.82;;;7.38;;
20619;SDS011;10469;42.720;23.252;2023-04-06T14:56:05;10.45;;;6.70;;
20619;SDS011;10469;42.720;23.252;2023-04-06T14:58:31;22.42;;;8.27;;
20619;SDS011;10469;42.720;23.252;2023-04-06T15:00:58;11.10;;;7.28;;
20619;SDS011;10469;42.720;23.252;2023-04-06T15:03:25;9.55;;;7.13;;
20619;SDS011;10469;42.720;23.252;2023-04-06T15:05:52;13.18;;;6.80;;
20619;SDS011;10469;42.720;23.252;2023-04-06T15:08:18;12.38;;;7.78;;
20619;SDS011;10469;42.720;23.252;2023-04-06T15:10:47;9.43;;;6.78;;
20619;SDS011;10469;42.720;23.252;2023-04-06T15:13:13;15.23;;;7.05;;
20619;SDS011;10469;42.720;23.252;2023-04-06T15:15:42;13.88;;;7.80;;
20619;SDS011;10469;42.720;23.252;2023-04-06T15:18:10;11.50;;;8.30;;
20619;SDS011;10469;42.720;23.252;2023-04-06T15:20:37;29.88;;;8.60;;
20619;SDS011;10469;42.720;23.252;2023-04-06T15:23:03;16.23;;;9.43;;
20619;SDS011;10469;42.720;23.252;2023-04-06T15:25:30;14.23;;;8.07;;
20619;SDS011;10469;42.720;23.252;2023-04-06T15:27:56;13.57;;;7.93;;
20619;SDS011;10469;42.720;23.252;2023-04-06T15:30:22;12.77;;;8.73;;
20619;SDS011;10469;42.720;23.252;2023-04-06T15:32:56;14.70;;;9.07;;
20619;SDS011;10469;42.720;23.252;2023-04-06T15:35:25;14.63;;;9.85;;
20619;SDS011;10469;42.720;23.252;2023-04-06T15:37:52;14.63;;;8.88;;
20619;SDS011;10469;42.720;23.252;2023-04-06T15:40:18;13.82;;;9.13;;
20619;SDS011;10469;42.720;23.252;2023-04-06T15:42:44;14.98;;;8.60;;
20619;SDS011;10469;42.720;23.252;2023-04-06T15:45:10;14.27;;;8.80;;
20619;SDS011;10469;42.720;23.252;2023-04-06T15:47:40;21.77;;;9.00;;
20619;SDS011;10469;42.720;23.252;2023-04-06T15:50:06;17.85;;;8.95;;
20619;SDS011;10469;42.720;23.252;2023-04-06T15:52:34;14.88;;;8.65;;
20619;SDS011;10469;42.720;23.252;2023-04-06T15:55:02;14.70;;;9.02;;
20619;SDS011;10469;42.720;23.252;2023-04-06T15:57:28;14.50;;;9.25;;
20619;SDS011;10469;42.720;23.252;2023-04-06T15:59:58;15.70;;;8.25;;
20619;SDS011;10469;42.720;23.252;2023-04-06T16:02:30;13.45;;;9.38;;
20619;SDS011;10469;42.720;23.252;2023-04-06T16:04:58;18.77;;;10.15;;
20619;SDS011;10469;42.720;23.252;2023-04-06T16:07:28;13.50;;;9.38;;
20619;SDS011;10469;42.720;23.252;2023-04-06T16:09:56;16.85;;;9.07;;
20619;SDS011;10469;42.720;23.252;2023-04-06T16:12:22;15.20;;;8.95;;
20619;SDS011;10469;42.720;23.252;2023-04-06T16:35:29;18.10;;;9.90;;
20619;SDS011;10469;42.720;23.252;2023-04-06T16:37:55;16.13;;;8.90;;
20619;SDS011;10469;42.720;23.252;2023-04-06T16:40:21;15.30;;;9.70;;
20619;SDS011;10469;42.720;23.252;2023-04-06T16:42:48;12.93;;;9.48;;
20619;SDS011;10469;42.720;23.252;2023-04-06T16:45:13;13.13;;;8.15;;
20619;SDS011;10469;42.720;23.252;2023-04-06T16:50:19;11.93;;;7.90;;
20619;SDS011;10469;42.720;23.252;2023-04-06T16:52:50;14.18;;;8.95;;
20619;SDS011;10469;42.720;23.252;2023-04-06T17:55:12;12.95;;;8.90;;
20619;SDS011;10469;42.720;23.252;2023-04-06T17:57:38;13.02;;;8.30;;
20619;SDS011;10469;42.720;23.252;2023-04-06T18:00:07;10.95;;;8.13;;
20619;SDS011;10469;42.720;23.252;2023-04-06T18:02:35;12.27;;;8.73;;
20619;SDS011;10469;42.720;23.252;2023-04-06T18:05:01;11.15;;;8.43;;